sensor_id;sensor_type;location;lat;lon;timestamp;temperature;humidity
35796;DHT22;21916;52.428;13.302;2024-03-07T00:01:29;7.90;99.90
35796;DHT22;21916;52.428;13.302;2024-03-07T00:03:57;7.90;99.90
35796;DHT22;21916;52.428;13.302;2024-03-07T00:06:22;7.90;99.90
35796;DHT22;21916;52.428;13.302;2024-03-07T00:08:48;7.80;99.90
35796;DHT22;21916;52.428;13.302;2024-03-07T00:11:14;7.90;99.90
35796;DHT22;21916;52.428;13.302;2024-03-07T00:13:39;8.00;99.90
35796;DHT22;21916;52.428;13.302;2024-03-07T00:16:05;8.00;99.90
35796;DHT22;21916;52.428;13.302;2024-03-07T00:18:31;8.00;99.90
35796;DHT22;21916;52.428;13.302;2024-03-07T00:20:56;7.90;99.90
35796;DHT22;21916;52.428;13.302;2024-03-07T00:23:22;8.00;99.90
35796;DHT22;21916;52.428;13.302;2024-03-07T00:25:48;8.00;99.90
35796;DHT22;21916;52.428;13.302;2024-03-07T00:28:15;8.00;99.90
35796;DHT22;21916;52.428;13.302;2024-03-07T00:30:43;8.00;99.90
35796;DHT22;21916;52.428;13.302;2024-03-07T00:33:14;8.10;99.90
35796;DHT22;21916;52.428;13.302;2024-03-07T00:35:39;8.00;99.90
35796;DHT22;21916;52.428;13.302;2024-03-07T00:38:05;8.00;99.90
35796;DHT22;21916;52.428;13.302;2024-03-07T00:40:32;7.90;99.90
35796;DHT22;21916;52.428;13.302;2024-03-07T00:42:58;8.00;99.90
35796;DHT22;21916;52.428;13.302;2024-03-07T00:45:24;7.90;99.90
35796;DHT22;21916;52.428;13.302;2024-03-07T00:47:50;8.00;99.90
35796;DHT22;21916;52.428;13.302;2024-03-07T00:50:16;7.90;99.90
35796;DHT22;21916;52.428;13.302;2024-03-07T00:52:41;7.80;99.90
35796;DHT22;21916;52.428;13.302;2024-03-07T00:55:07;7.80;99.90
35796;DHT22;21916;52.428;13.302;2024-03-07T00:57:37;7.90;99.90
35796;DHT22;21916;52.428;13.302;2024-03-07T01:00:03;7.90;99.90
35796;DHT22;21916;52.428;13.302;2024-03-07T01:02:29;7.80;99.90
35796;DHT22;21916;52.428;13.302;2024-03-07T01:04:55;7.80;99.90
35796;DHT22;21916;52.428;13.302;2024-03-07T01:07:21;7.80;99.90
35796;DHT22;21916;52.428;13.302;2024-03-07T01:09:49;7.70;99.90
35796;DHT22;21916;52.428;13.302;2024-03-07T01:12:15;7.70;99.90
35796;DHT22;21916;52.428;13.302;2024-03-07T01:14:41;7.70;99.90
35796;DHT22;21916;52.428;13.302;2024-03-07T01:17:06;7.70;99.90
35796;DHT22;21916;52.428;13.302;2024-03-07T01:19:33;7.60;99.90
35796;DHT22;21916;52.428;13.302;2024-03-07T01:21:59;7.50;99.90
35796;DHT22;21916;52.428;13.302;2024-03-07T01:24:25;7.40;99.90
35796;DHT22;21916;52.428;13.302;2024-03-07T01:26:51;7.40;99.90
35796;DHT22;21916;52.428;13.302;2024-03-07T01:29:17;7.40;99.90
35796;DHT22;21916;52.428;13.302;2024-03-07T01:31:43;7.30;99.90
35796;DHT22;21916;52.428;13.302;2024-03-07T01:34:08;7.20;99.90
35796;DHT22;21916;52.428;13.302;2024-03-07T01:36:34;7.20;99.90
35796;DHT22;21916;52.428;13.302;2024-03-07T01:39:00;7.30;99.90
35796;DHT22;21916;52.428;13.302;2024-03-07T01:41:27;7.30;99.90
35796;DHT22;21916;52.428;13.302;2024-03-07T01:43:52;7.20;99.90
35796;DHT22;21916;52.428;13.302;2024-03-07T01:46:18;7.20;99.90
35796;DHT22;21916;52.428;13.302;2024-03-07T01:48:45;7.20;99.90
35796;DHT22;21916;52.428;13.302;2024-03-07T01:51:12;7.00;99.90
35796;DHT22;21916;52.428;13.302;2024-03-07T01:53:38;7.00;99.90
35796;DHT22;21916;52.428;13.302;2024-03-07T01:56:04;7.00;99.90
35796;DHT22;21916;52.428;13.302;2024-03-07T01:58:31;7.00;99.90
35796;DHT22;21916;52.428;13.302;2024-03-07T02:00:58;7.00;99.90
35796;DHT22;21916;52.428;13.302;2024-03-07T02:03:25;7.00;99.90
35796;DHT22;21916;52.428;13.302;2024-03-07T02:05:51;6.80;99.90
35796;DHT22;21916;52.428;13.302;2024-03-07T02:08:18;6.80;99.90
35796;DHT22;21916;52.428;13.302;2024-03-07T02:10:45;6.90;99.90
35796;DHT22;21916;52.428;13.302;2024-03-07T02:13:11;6.90;99.90
35796;DHT22;21916;52.428;13.302;2024-03-07T02:15:37;7.00;99.90
35796;DHT22;21916;52.428;13.302;2024-03-07T02:18:03;6.80;99.90
35796;DHT22;21916;52.428;13.302;2024-03-07T02:20:29;6.80;99.90
35796;DHT22;21916;52.428;13.302;2024-03-07T02:22:55;6.80;99.90
35796;DHT22;21916;52.428;13.302;2024-03-07T02:25:21;6.70;99.90
35796;DHT22;21916;52.428;13.302;2024-03-07T02:27:47;6.60;99.90
35796;DHT22;21916;52.428;13.302;2024-03-07T02:30:12;6.70;99.90
35796;DHT22;21916;52.428;13.302;2024-03-07T02:32:38;6.70;99.90
35796;DHT22;21916;52.428;13.302;2024-03-07T02:35:05;6.80;99.90
35796;DHT22;21916;52.428;13.302;2024-03-07T02:37:31;6.60;99.90
35796;DHT22;21916;52.428;13.302;2024-03-07T02:39:57;6.70;99.90
35796;DHT22;21916;52.428;13.302;2024-03-07T02:42:22;6.70;99.90
35796;DHT22;21916;52.428;13.302;2024-03-07T02:44:48;6.60;99.90
35796;DHT22;21916;52.428;13.302;2024-03-07T02:47:13;6.60;99.90
35796;DHT22;21916;52.428;13.302;2024-03-07T02:49:39;6.40;99.90
35796;DHT22;21916;52.428;13.302;2024-03-07T02:52:06;6.50;99.90
35796;DHT22;21916;52.428;13.302;2024-03-07T02:54:34;6.40;99.90
35796;DHT22;21916;52.428;13.302;2024-03-07T02:57:00;6.40;99.90
35796;DHT22;21916;52.428;13.302;2024-03-07T02:59:26;6.30;99.90
35796;DHT22;21916;52.428;13.302;2024-03-07T03:01:52;6.40;99.90
35796;DHT22;21916;52.428;13.302;2024-03-07T03:04:17;6.30;99.90
35796;DHT22;21916;52.428;13.302;2024-03-07T03:06:43;6.30;99.90
35796;DHT22;21916;52.428;13.302;2024-03-07T03:09:09;6.40;99.90
35796;DHT22;21916;52.428;13.302;2024-03-07T03:11:39;6.30;99.90
35796;DHT22;21916;52.428;13.302;2024-03-07T03:14:04;6.30;99.90
35796;DHT22;21916;52.428;13.302;2024-03-07T03:16:30;6.20;99.90
35796;DHT22;21916;52.428;13.302;2024-03-07T03:18:56;6.10;99.90
35796;DHT22;21916;52.428;13.302;2024-03-07T03:21:23;6.20;99.90
35796;DHT22;21916;52.428;13.302;2024-03-07T03:23:49;6.10;99.90
35796;DHT22;21916;52.428;13.302;2024-03-07T03:26:14;6.20;99.90
35796;DHT22;21916;52.428;13.302;2024-03-07T03:28:41;6.20;99.90
35796;DHT22;21916;52.428;13.302;2024-03-07T03:31:08;6.20;99.90
35796;DHT22;21916;52.428;13.302;2024-03-07T03:33:34;6.10;99.90
35796;DHT22;21916;52.428;13.302;2024-03-07T03:36:00;6.20;99.90
35796;DHT22;21916;52.428;13.302;2024-03-07T03:38:26;6.30;99.90
35796;DHT22;21916;52.428;13.302;2024-03-07T03:40:52;6.30;99.90
35796;DHT22;21916;52.428;13.302;2024-03-07T03:43:18;6.30;99.90
35796;DHT22;21916;52.428;13.302;2024-03-07T03:45:44;6.10;99.90
35796;DHT22;21916;52.428;13.302;2024-03-07T03:48:11;6.00;99.90
35796;DHT22;21916;52.428;13.302;2024-03-07T03:50:36;5.90;99.90
35796;DHT22;21916;52.428;13.302;2024-03-07T03:53:02;6.00;99.90
35796;DHT22;21916;52.428;13.302;2024-03-07T03:55:29;5.90;99.90
35796;DHT22;21916;52.428;13.302;2024-03-07T03:57:55;5.80;99.90
35796;DHT22;21916;52.428;13.302;2024-03-07T04:00:21;5.80;99.90
35796;DHT22;21916;52.428;13.302;2024-03-07T04:02:48;6.00;99.90
35796;DHT22;21916;52.428;13.302;2024-03-07T04:05:15;5.90;99.90
35796;DHT22;21916;52.428;13.302;2024-03-07T04:07:41;5.90;99.90
35796;DHT22;21916;52.428;13.302;2024-03-07T04:10:08;5.90;99.90
35796;DHT22;21916;52.428;13.302;2024-03-07T04:12:38;5.70;99.90
35796;DHT22;21916;52.428;13.302;2024-03-07T04:15:05;5.80;99.90
35796;DHT22;21916;52.428;13.302;2024-03-07T04:17:33;5.60;99.90
35796;DHT22;21916;52.428;13.302;2024-03-07T04:20:06;5.50;99.90
35796;DHT22;21916;52.428;13.302;2024-03-07T04:22:33;5.50;99.90
35796;DHT22;21916;52.428;13.302;2024-03-07T04:24:59;5.60;99.90
35796;DHT22;21916;52.428;13.302;2024-03-07T04:27:27;5.60;99.90
35796;DHT22;21916;52.428;13.302;2024-03-07T04:29:53;5.60;99.90
35796;DHT22;21916;52.428;13.302;2024-03-07T04:32:19;5.50;99.90
35796;DHT22;21916;52.428;13.302;2024-03-07T04:34:45;5.30;99.90
35796;DHT22;21916;52.428;13.302;2024-03-07T04:37:10;5.30;99.90
35796;DHT22;21916;52.428;13.302;2024-03-07T04:39:38;5.30;99.90
35796;DHT22;21916;52.428;13.302;2024-03-07T04:42:05;5.20;99.90
35796;DHT22;21916;52.428;13.302;2024-03-07T04:44:32;5.00;99.90
35796;DHT22;21916;52.428;13.302;2024-03-07T04:46:59;4.90;99.90
35796;DHT22;21916;52.428;13.302;2024-03-07T04:49:28;4.90;99.90
35796;DHT22;21916;52.428;13.302;2024-03-07T04:51:55;4.90;99.90
35796;DHT22;21916;52.428;13.302;2024-03-07T04:54:22;4.80;99.90
35796;DHT22;21916;52.428;13.302;2024-03-07T04:56:50;4.70;99.90
35796;DHT22;21916;52.428;13.302;2024-03-07T04:59:17;4.50;99.90
35796;DHT22;21916;52.428;13.302;2024-03-07T05:01:44;4.60;99.90
35796;DHT22;21916;52.428;13.302;2024-03-07T05:04:10;4.70;99.90
35796;DHT22;21916;52.428;13.302;2024-03-07T05:06:37;4.40;99.90
35796;DHT22;21916;52.428;13.302;2024-03-07T05:09:05;4.40;99.90
35796;DHT22;21916;52.428;13.302;2024-03-07T05:11:33;4.30;99.90
35796;DHT22;21916;52.428;13.302;2024-03-07T05:13:59;4.40;99.90
35796;DHT22;21916;52.428;13.302;2024-03-07T05:16:26;4.40;99.90
35796;DHT22;21916;52.428;13.302;2024-03-07T05:18:52;4.30;99.90
35796;DHT22;21916;52.428;13.302;2024-03-07T05:21:19;4.30;99.90
35796;DHT22;21916;52.428;13.302;2024-03-07T05:24:07;4.30;99.90
35796;DHT22;21916;52.428;13.302;2024-03-07T05:26:34;4.20;99.90
35796;DHT22;21916;52.428;13.302;2024-03-07T05:29:09;4.20;99.90
35796;DHT22;21916;52.428;13.302;2024-03-07T05:31:36;4.00;99.90
35796;DHT22;21916;52.428;13.302;2024-03-07T05:34:03;4.00;99.90
35796;DHT22;21916;52.428;13.302;2024-03-07T05:36:31;4.00;99.90
35796;DHT22;21916;52.428;13.302;2024-03-07T05:38:57;3.90;99.90
35796;DHT22;21916;52.428;13.302;2024-03-07T05:41:23;4.00;99.90
35796;DHT22;21916;52.428;13.302;2024-03-07T05:43:49;4.10;99.90
35796;DHT22;21916;52.428;13.302;2024-03-07T05:46:16;4.00;99.90
35796;DHT22;21916;52.428;13.302;2024-03-07T05:48:42;4.10;99.90
35796;DHT22;21916;52.428;13.302;2024-03-07T05:51:08;4.00;99.90
35796;DHT22;21916;52.428;13.302;2024-03-07T05:53:35;4.00;99.90
35796;DHT22;21916;52.428;13.302;2024-03-07T05:56:03;3.80;99.90
35796;DHT22;21916;52.428;13.302;2024-03-07T05:58:29;3.90;99.90
35796;DHT22;21916;52.428;13.302;2024-03-07T06:00:55;4.00;99.90
35796;DHT22;21916;52.428;13.302;2024-03-07T06:03:21;3.90;99.90
35796;DHT22;21916;52.428;13.302;2024-03-07T06:05:47;4.00;99.90
35796;DHT22;21916;52.428;13.302;2024-03-07T06:08:17;4.20;99.90
35796;DHT22;21916;52.428;13.302;2024-03-07T06:10:44;4.20;99.90
35796;DHT22;21916;52.428;13.302;2024-03-07T06:13:11;4.20;99.90
35796;DHT22;21916;52.428;13.302;2024-03-07T06:15:38;4.10;99.90
35796;DHT22;21916;52.428;13.302;2024-03-07T06:18:05;4.20;99.90
35796;DHT22;21916;52.428;13.302;2024-03-07T06:20:31;4.20;99.90
35796;DHT22;21916;52.428;13.302;2024-03-07T06:22:57;4.10;99.90
35796;DHT22;21916;52.428;13.302;2024-03-07T06:25:23;4.20;99.90
35796;DHT22;21916;52.428;13.302;2024-03-07T06:28:01;4.40;99.90
35796;DHT22;21916;52.428;13.302;2024-03-07T06:30:35;4.20;99.90
35796;DHT22;21916;52.428;13.302;2024-03-07T06:33:01;4.00;99.90
35796;DHT22;21916;52.428;13.302;2024-03-07T06:35:27;4.10;99.90
35796;DHT22;21916;52.428;13.302;2024-03-07T06:37:52;4.20;99.90
35796;DHT22;21916;52.428;13.302;2024-03-07T06:40:18;4.20;99.90
35796;DHT22;21916;52.428;13.302;2024-03-07T06:42:48;4.20;99.90
35796;DHT22;21916;52.428;13.302;2024-03-07T06:45:14;4.40;99.90
35796;DHT22;21916;52.428;13.302;2024-03-07T06:47:40;4.30;99.90
35796;DHT22;21916;52.428;13.302;2024-03-07T06:50:07;4.40;99.90
35796;DHT22;21916;52.428;13.302;2024-03-07T06:52:35;4.40;99.90
35796;DHT22;21916;52.428;13.302;2024-03-07T06:55:01;4.30;99.90
35796;DHT22;21916;52.428;13.302;2024-03-07T06:57:29;4.40;99.90
35796;DHT22;21916;52.428;13.302;2024-03-07T06:59:55;4.50;99.90
35796;DHT22;21916;52.428;13.302;2024-03-07T07:02:21;4.60;99.90
35796;DHT22;21916;52.428;13.302;2024-03-07T07:04:46;4.60;99.90
35796;DHT22;21916;52.428;13.302;2024-03-07T07:07:13;4.70;99.90
35796;DHT22;21916;52.428;13.302;2024-03-07T07:09:40;4.70;99.90
35796;DHT22;21916;52.428;13.302;2024-03-07T07:12:06;4.70;99.90
35796;DHT22;21916;52.428;13.302;2024-03-07T07:14:32;4.80;99.90
35796;DHT22;21916;52.428;13.302;2024-03-07T07:16:58;5.00;99.90
35796;DHT22;21916;52.428;13.302;2024-03-07T07:19:26;5.10;99.90
35796;DHT22;21916;52.428;13.302;2024-03-07T07:21:52;5.10;99.90
35796;DHT22;21916;52.428;13.302;2024-03-07T07:24:20;5.10;99.90
35796;DHT22;21916;52.428;13.302;2024-03-07T07:26:49;5.20;99.90
35796;DHT22;21916;52.428;13.302;2024-03-07T07:29:16;5.30;99.90
35796;DHT22;21916;52.428;13.302;2024-03-07T07:31:41;5.30;99.90
35796;DHT22;21916;52.428;13.302;2024-03-07T07:34:07;5.40;99.90
35796;DHT22;21916;52.428;13.302;2024-03-07T07:36:33;5.50;99.90
35796;DHT22;21916;52.428;13.302;2024-03-07T07:38:59;5.70;99.90
35796;DHT22;21916;52.428;13.302;2024-03-07T07:41:25;5.70;99.90
35796;DHT22;21916;52.428;13.302;2024-03-07T07:43:50;5.70;99.90
35796;DHT22;21916;52.428;13.302;2024-03-07T07:46:17;5.90;99.90
35796;DHT22;21916;52.428;13.302;2024-03-07T07:48:43;6.00;99.90
35796;DHT22;21916;52.428;13.302;2024-03-07T07:51:09;6.10;99.90
35796;DHT22;21916;52.428;13.302;2024-03-07T07:53:35;6.30;99.90
35796;DHT22;21916;52.428;13.302;2024-03-07T07:56:01;6.30;99.90
35796;DHT22;21916;52.428;13.302;2024-03-07T07:58:26;6.30;99.90
35796;DHT22;21916;52.428;13.302;2024-03-07T08:00:52;6.40;99.90
35796;DHT22;21916;52.428;13.302;2024-03-07T08:03:18;6.40;99.90
35796;DHT22;21916;52.428;13.302;2024-03-07T08:05:44;6.40;99.90
35796;DHT22;21916;52.428;13.302;2024-03-07T08:08:12;6.50;99.90
35796;DHT22;21916;52.428;13.302;2024-03-07T08:10:41;6.60;99.90
35796;DHT22;21916;52.428;13.302;2024-03-07T08:13:07;6.70;99.90
35796;DHT22;21916;52.428;13.302;2024-03-07T08:15:38;6.80;99.90
35796;DHT22;21916;52.428;13.302;2024-03-07T08:18:04;6.90;99.90
35796;DHT22;21916;52.428;13.302;2024-03-07T08:20:37;6.90;99.90
35796;DHT22;21916;52.428;13.302;2024-03-07T08:23:04;6.80;99.90
35796;DHT22;21916;52.428;13.302;2024-03-07T08:25:30;6.90;99.90
35796;DHT22;21916;52.428;13.302;2024-03-07T08:27:57;7.00;99.90
35796;DHT22;21916;52.428;13.302;2024-03-07T08:30:23;7.00;99.90
35796;DHT22;21916;52.428;13.302;2024-03-07T08:32:53;7.10;99.90
35796;DHT22;21916;52.428;13.302;2024-03-07T08:35:19;7.20;99.90
35796;DHT22;21916;52.428;13.302;2024-03-07T08:37:46;7.10;99.90
35796;DHT22;21916;52.428;13.302;2024-03-07T08:40:15;7.30;99.90
35796;DHT22;21916;52.428;13.302;2024-03-07T08:42:47;7.40;99.90
35796;DHT22;21916;52.428;13.302;2024-03-07T08:45:13;7.50;99.90
35796;DHT22;21916;52.428;13.302;2024-03-07T08:47:43;7.50;99.90
35796;DHT22;21916;52.428;13.302;2024-03-07T08:50:09;7.70;99.90
35796;DHT22;21916;52.428;13.302;2024-03-07T08:52:36;7.70;99.90
35796;DHT22;21916;52.428;13.302;2024-03-07T08:55:03;7.80;99.90
35796;DHT22;21916;52.428;13.302;2024-03-07T08:57:29;7.90;99.90
35796;DHT22;21916;52.428;13.302;2024-03-07T08:59:55;7.90;99.90
35796;DHT22;21916;52.428;13.302;2024-03-07T09:02:21;8.10;99.90
35796;DHT22;21916;52.428;13.302;2024-03-07T09:04:47;8.10;99.90
35796;DHT22;21916;52.428;13.302;2024-03-07T09:07:12;8.20;99.90
35796;DHT22;21916;52.428;13.302;2024-03-07T09:09:43;8.00;99.90
35796;DHT22;21916;52.428;13.302;2024-03-07T09:12:11;8.20;99.90
35796;DHT22;21916;52.428;13.302;2024-03-07T09:14:37;8.30;99.90
35796;DHT22;21916;52.428;13.302;2024-03-07T09:17:03;8.60;99.90
35796;DHT22;21916;52.428;13.302;2024-03-07T09:19:33;8.60;99.90
35796;DHT22;21916;52.428;13.302;2024-03-07T09:21:58;8.60;99.90
35796;DHT22;21916;52.428;13.302;2024-03-07T09:24:25;8.60;99.90
35796;DHT22;21916;52.428;13.302;2024-03-07T09:26:52;8.70;99.90
35796;DHT22;21916;52.428;13.302;2024-03-07T09:29:21;8.80;99.90
35796;DHT22;21916;52.428;13.302;2024-03-07T09:31:50;8.80;99.90
35796;DHT22;21916;52.428;13.302;2024-03-07T09:34:21;8.90;99.90
35796;DHT22;21916;52.428;13.302;2024-03-07T09:36:47;9.10;99.60
35796;DHT22;21916;52.428;13.302;2024-03-07T09:39:15;9.20;99.10
35796;DHT22;21916;52.428;13.302;2024-03-07T09:41:41;9.10;98.50
35796;DHT22;21916;52.428;13.302;2024-03-07T09:44:16;9.20;98.10
35796;DHT22;21916;52.428;13.302;2024-03-07T09:46:48;9.10;98.40
35796;DHT22;21916;52.428;13.302;2024-03-07T09:49:15;9.20;97.60
35796;DHT22;21916;52.428;13.302;2024-03-07T09:51:40;9.20;97.80
35796;DHT22;21916;52.428;13.302;2024-03-07T09:54:08;9.30;97.70
35796;DHT22;21916;52.428;13.302;2024-03-07T09:56:36;9.10;97.60
35796;DHT22;21916;52.428;13.302;2024-03-07T09:59:04;9.00;96.60
35796;DHT22;21916;52.428;13.302;2024-03-07T10:01:33;9.00;96.60
35796;DHT22;21916;52.428;13.302;2024-03-07T10:04:01;9.30;96.80
35796;DHT22;21916;52.428;13.302;2024-03-07T10:06:36;9.40;96.60
35796;DHT22;21916;52.428;13.302;2024-03-07T10:09:02;9.70;96.60
35796;DHT22;21916;52.428;13.302;2024-03-07T10:11:29;9.70;95.80
35796;DHT22;21916;52.428;13.302;2024-03-07T10:13:55;9.90;96.10
35796;DHT22;21916;52.428;13.302;2024-03-07T10:16:20;10.00;95.70
35796;DHT22;21916;52.428;13.302;2024-03-07T10:18:46;9.90;94.60
35796;DHT22;21916;52.428;13.302;2024-03-07T10:21:18;9.90;94.20
35796;DHT22;21916;52.428;13.302;2024-03-07T10:23:44;10.00;94.40
35796;DHT22;21916;52.428;13.302;2024-03-07T10:26:10;10.10;94.20
35796;DHT22;21916;52.428;13.302;2024-03-07T10:28:37;10.50;93.70
35796;DHT22;21916;52.428;13.302;2024-03-07T10:31:04;10.60;93.80
35796;DHT22;21916;52.428;13.302;2024-03-07T10:33:34;10.70;93.30
35796;DHT22;21916;52.428;13.302;2024-03-07T10:36:00;11.00;93.20
35796;DHT22;21916;52.428;13.302;2024-03-07T10:38:27;11.10;92.60
35796;DHT22;21916;52.428;13.302;2024-03-07T10:40:54;11.10;92.60
35796;DHT22;21916;52.428;13.302;2024-03-07T10:43:21;11.00;92.50
35796;DHT22;21916;52.428;13.302;2024-03-07T10:45:48;11.00;92.50
35796;DHT22;21916;52.428;13.302;2024-03-07T10:48:18;11.10;92.40
35796;DHT22;21916;52.428;13.302;2024-03-07T10:51:06;11.30;92.20
35796;DHT22;21916;52.428;13.302;2024-03-07T10:59:31;11.80;91.10
35796;DHT22;21916;52.428;13.302;2024-03-07T11:02:24;11.90;90.60
35796;DHT22;21916;52.428;13.302;2024-03-07T11:04:55;12.10;90.50
35796;DHT22;21916;52.428;13.302;2024-03-07T11:07:23;12.30;90.30
35796;DHT22;21916;52.428;13.302;2024-03-07T11:09:49;12.90;90.50
35796;DHT22;21916;52.428;13.302;2024-03-07T11:12:21;13.60;88.50
35796;DHT22;21916;52.428;13.302;2024-03-07T11:14:50;14.60;87.00
35796;DHT22;21916;52.428;13.302;2024-03-07T11:17:18;15.70;83.00
35796;DHT22;21916;52.428;13.302;2024-03-07T11:19:44;16.70;78.90
35796;DHT22;21916;52.428;13.302;2024-03-07T11:22:11;17.20;76.90
35796;DHT22;21916;52.428;13.302;2024-03-07T11:24:41;17.70;74.80
35796;DHT22;21916;52.428;13.302;2024-03-07T11:27:09;19.00;72.80
35796;DHT22;21916;52.428;13.302;2024-03-07T11:29:49;20.30;70.00
35796;DHT22;21916;52.428;13.302;2024-03-07T11:32:23;20.60;65.60
35796;DHT22;21916;52.428;13.302;2024-03-07T11:34:49;20.40;64.80
35796;DHT22;21916;52.428;13.302;2024-03-07T11:37:19;21.30;63.20
35796;DHT22;21916;52.428;13.302;2024-03-07T11:39:48;21.70;62.10
35796;DHT22;21916;52.428;13.302;2024-03-07T11:44:51;23.30;57.90
35796;DHT22;21916;52.428;13.302;2024-03-07T11:47:17;23.90;56.20
35796;DHT22;21916;52.428;13.302;2024-03-07T11:49:44;23.80;54.50
35796;DHT22;21916;52.428;13.302;2024-03-07T11:52:15;23.40;55.10
35796;DHT22;21916;52.428;13.302;2024-03-07T11:54:42;24.30;54.30
35796;DHT22;21916;52.428;13.302;2024-03-07T11:57:17;24.60;53.30
35796;DHT22;21916;52.428;13.302;2024-03-07T11:59:47;24.70;52.50
35796;DHT22;21916;52.428;13.302;2024-03-07T12:02:18;24.40;51.90
35796;DHT22;21916;52.428;13.302;2024-03-07T12:04:50;24.30;51.50
35796;DHT22;21916;52.428;13.302;2024-03-07T12:07:16;24.70;51.30
35796;DHT22;21916;52.428;13.302;2024-03-07T12:09:49;24.80;50.60
35796;DHT22;21916;52.428;13.302;2024-03-07T12:12:20;25.50;50.40
35796;DHT22;21916;52.428;13.302;2024-03-07T12:14:55;25.80;49.80
35796;DHT22;21916;52.428;13.302;2024-03-07T12:17:22;26.50;48.50
35796;DHT22;21916;52.428;13.302;2024-03-07T12:19:48;26.50;48.50
35796;DHT22;21916;52.428;13.302;2024-03-07T12:22:19;26.40;47.40
35796;DHT22;21916;52.428;13.302;2024-03-07T12:24:59;25.80;47.80
35796;DHT22;21916;52.428;13.302;2024-03-07T12:27:28;26.10;48.00
35796;DHT22;21916;52.428;13.302;2024-03-07T12:29:53;26.90;47.10
35796;DHT22;21916;52.428;13.302;2024-03-07T12:32:19;27.30;46.70
35796;DHT22;21916;52.428;13.302;2024-03-07T12:34:45;27.20;46.50
35796;DHT22;21916;52.428;13.302;2024-03-07T12:37:13;27.10;46.40
35796;DHT22;21916;52.428;13.302;2024-03-07T12:39:42;26.60;46.40
35796;DHT22;21916;52.428;13.302;2024-03-07T12:42:24;27.00;46.20
35796;DHT22;21916;52.428;13.302;2024-03-07T12:44:50;26.70;45.40
35796;DHT22;21916;52.428;13.302;2024-03-07T12:47:16;26.90;45.60
35796;DHT22;21916;52.428;13.302;2024-03-07T12:49:43;26.90;45.10
35796;DHT22;21916;52.428;13.302;2024-03-07T12:52:10;26.60;45.20
35796;DHT22;21916;52.428;13.302;2024-03-07T12:54:36;26.80;45.00
35796;DHT22;21916;52.428;13.302;2024-03-07T12:57:12;27.20;45.00
35796;DHT22;21916;52.428;13.302;2024-03-07T12:59:39;26.80;44.60
35796;DHT22;21916;52.428;13.302;2024-03-07T13:02:11;26.40;44.30
35796;DHT22;21916;52.428;13.302;2024-03-07T13:04:38;27.10;43.70
35796;DHT22;21916;52.428;13.302;2024-03-07T13:07:04;27.00;43.10
35796;DHT22;21916;52.428;13.302;2024-03-07T13:09:33;26.60;43.10
35796;DHT22;21916;52.428;13.302;2024-03-07T13:11:59;26.00;42.70
35796;DHT22;21916;52.428;13.302;2024-03-07T13:14:30;26.10;43.20
35796;DHT22;21916;52.428;13.302;2024-03-07T13:16:59;26.40;43.20
35796;DHT22;21916;52.428;13.302;2024-03-07T13:19:26;25.20;43.60
35796;DHT22;21916;52.428;13.302;2024-03-07T13:21:52;25.40;43.70
35796;DHT22;21916;52.428;13.302;2024-03-07T13:24:19;25.80;44.00
35796;DHT22;21916;52.428;13.302;2024-03-07T13:26:46;26.30;43.30
35796;DHT22;21916;52.428;13.302;2024-03-07T13:29:14;25.80;43.10
35796;DHT22;21916;52.428;13.302;2024-03-07T13:31:40;25.70;42.60
35796;DHT22;21916;52.428;13.302;2024-03-07T13:34:09;25.50;42.60
35796;DHT22;21916;52.428;13.302;2024-03-07T13:36:41;25.70;42.20
35796;DHT22;21916;52.428;13.302;2024-03-07T13:39:12;25.80;41.80
35796;DHT22;21916;52.428;13.302;2024-03-07T13:41:41;25.90;41.60
35796;DHT22;21916;52.428;13.302;2024-03-07T13:44:07;26.10;41.70
35796;DHT22;21916;52.428;13.302;2024-03-07T13:46:33;26.70;41.60
35796;DHT22;21916;52.428;13.302;2024-03-07T13:49:00;26.30;41.30
35796;DHT22;21916;52.428;13.302;2024-03-07T13:51:36;26.20;41.60
35796;DHT22;21916;52.428;13.302;2024-03-07T13:54:02;25.70;41.90
35796;DHT22;21916;52.428;13.302;2024-03-07T13:57:14;25.80;41.60
35796;DHT22;21916;52.428;13.302;2024-03-07T14:00:14;25.30;41.30
35796;DHT22;21916;52.428;13.302;2024-03-07T14:03:21;25.30;41.20
35796;DHT22;21916;52.428;13.302;2024-03-07T14:11:53;24.70;41.10
35796;DHT22;21916;52.428;13.302;2024-03-07T14:18:11;23.50;42.30
35796;DHT22;21916;52.428;13.302;2024-03-07T14:30:02;24.30;42.60
35796;DHT22;21916;52.428;13.302;2024-03-07T14:32:38;24.10;42.90
35796;DHT22;21916;52.428;13.302;2024-03-07T14:40:48;24.40;42.10
35796;DHT22;21916;52.428;13.302;2024-03-07T14:43:16;24.60;41.60
35796;DHT22;21916;52.428;13.302;2024-03-07T14:45:43;24.80;41.10
35796;DHT22;21916;52.428;13.302;2024-03-07T14:48:10;24.40;41.20
35796;DHT22;21916;52.428;13.302;2024-03-07T14:50:39;24.10;41.30
35796;DHT22;21916;52.428;13.302;2024-03-07T14:53:07;23.60;41.50
35796;DHT22;21916;52.428;13.302;2024-03-07T14:55:35;23.40;42.20
35796;DHT22;21916;52.428;13.302;2024-03-07T14:58:01;22.70;42.40
35796;DHT22;21916;52.428;13.302;2024-03-07T15:00:27;22.30;42.30
35796;DHT22;21916;52.428;13.302;2024-03-07T15:02:55;22.80;42.80
35796;DHT22;21916;52.428;13.302;2024-03-07T15:05:23;23.10;42.60
35796;DHT22;21916;52.428;13.302;2024-03-07T15:07:53;23.00;43.20
35796;DHT22;21916;52.428;13.302;2024-03-07T15:10:23;23.40;43.00
35796;DHT22;21916;52.428;13.302;2024-03-07T15:12:52;23.10;43.00
35796;DHT22;21916;52.428;13.302;2024-03-07T15:15:18;22.60;43.20
35796;DHT22;21916;52.428;13.302;2024-03-07T15:17:46;22.60;43.60
35796;DHT22;21916;52.428;13.302;2024-03-07T15:20:12;22.40;43.60
35796;DHT22;21916;52.428;13.302;2024-03-07T15:22:57;22.30;43.60
35796;DHT22;21916;52.428;13.302;2024-03-07T15:25:24;22.10;43.60
35796;DHT22;21916;52.428;13.302;2024-03-07T15:27:51;22.30;43.70
35796;DHT22;21916;52.428;13.302;2024-03-07T15:30:18;21.70;44.20
35796;DHT22;21916;52.428;13.302;2024-03-07T15:32:46;21.00;44.70
35796;DHT22;21916;52.428;13.302;2024-03-07T15:35:13;20.50;45.60
35796;DHT22;21916;52.428;13.302;2024-03-07T15:37:45;20.50;46.00
35796;DHT22;21916;52.428;13.302;2024-03-07T15:40:12;20.20;45.90
35796;DHT22;21916;52.428;13.302;2024-03-07T15:42:39;20.30;45.70
35796;DHT22;21916;52.428;13.302;2024-03-07T15:45:13;19.30;45.90
35796;DHT22;21916;52.428;13.302;2024-03-07T15:47:45;19.10;46.80
35796;DHT22;21916;52.428;13.302;2024-03-07T15:50:12;19.00;47.30
35796;DHT22;21916;52.428;13.302;2024-03-07T15:52:41;18.70;46.80
35796;DHT22;21916;52.428;13.302;2024-03-07T15:55:11;18.10;47.20
35796;DHT22;21916;52.428;13.302;2024-03-07T15:58:01;18.20;47.80
35796;DHT22;21916;52.428;13.302;2024-03-07T16:00:30;18.10;47.80
35796;DHT22;21916;52.428;13.302;2024-03-07T16:02:57;17.60;48.50